Time;durP1;ratioP1;P1;durP2;ratioP2;P2;SDS_P1;SDS_P2;PMS_P1;PMS_P2;Temp;Humidity;BMP_temperature;BMP_pressure;BME280_temperature;BME280_humidity;BME280_pressure;Samples;Min_cycle;Max_cycle;Signal;HPM_P1;HPM_P2
2022/04/05 00:00:17;;;;;;;13.50;5.90;;;;;;;;;;4968341;28;20492;-74
2022/04/05 00:02:43;;;;;;;12.10;4.90;;;;;;;;;;4969825;28;20023;-73
2022/04/05 00:05:10;;;;;;;14.60;5.57;;;;;;;;;;4969749;28;20034;-73
2022/04/05 00:07:36;;;;;;;18.95;5.75;;;;;;;;;;4967985;28;20034;-73
2022/04/05 00:10:03;;;;;;;16.40;5.53;;;;;;;;;;4969489;28;20405;-72
2022/04/05 00:12:29;;;;;;;18.58;5.03;;;;;;;;;;4968920;28;20078;-74
2022/04/05 00:14:55;;;;;;;16.67;5.47;;;;;;;;;;4967904;28;20121;-73
2022/04/05 00:17:21;;;;;;;16.90;4.47;;;;;;;;;;4968616;28;20023;-73
2022/04/05 00:19:48;;;;;;;16.70;5.47;;;;;;;;;;4984321;28;20185;-74
2022/04/05 00:22:16;;;;;;;19.35;5.53;;;;;;;;;;4983926;28;20038;-75
2022/04/05 00:24:42;;;;;;;16.40;5.28;;;;;;;;;;4983142;28;20413;-73
2022/04/05 00:27:09;;;;;;;20.75;4.82;;;;;;;;;;4967609;28;20066;-73
2022/04/05 00:29:35;;;;;;;17.23;5.18;;;;;;;;;;4966733;28;20043;-73
2022/04/05 00:32:02;;;;;;;18.20;5.72;;;;;;;;;;4968840;28;20018;-74
2022/04/05 00:34:29;;;;;;;9.05;4.20;;;;;;;;;;4966940;28;20117;-72
2022/04/05 00:36:56;;;;;;;11.13;4.38;;;;;;;;;;4966937;28;20038;-73
2022/04/05 00:39:23;;;;;;;16.63;5.63;;;;;;;;;;4965358;28;20030;-74
2022/04/05 00:41:51;;;;;;;10.85;4.50;;;;;;;;;;4967622;28;20089;-74
2022/04/05 00:44:17;;;;;;;20.33;4.93;;;;;;;;;;4982421;28;20521;-75
2022/04/05 00:46:44;;;;;;;18.08;5.50;;;;;;;;;;4968240;28;20049;-74
2022/04/05 00:49:13;;;;;;;17.00;5.93;;;;;;;;;;4966697;28;20106;-75
2022/04/05 00:51:41;;;;;;;16.88;4.88;;;;;;;;;;4971121;28;20023;-74
2022/04/05 00:54:10;;;;;;;16.55;4.70;;;;;;;;;;4968504;28;20019;-73
2022/04/05 00:56:37;;;;;;;22.63;5.38;;;;;;;;;;4968834;28;20031;-75
2022/04/05 00:59:06;;;;;;;17.92;4.63;;;;;;;;;;4980853;28;20022;-72
2022/04/05 01:01:33;;;;;;;17.45;5.05;;;;;;;;;;4984047;28;20026;-74
2022/04/05 01:04:00;;;;;;;20.45;5.85;;;;;;;;;;4967327;28;20041;-75
2022/04/05 01:06:30;;;;;;;16.33;4.95;;;;;;;;;;4968995;28;20041;-75
2022/04/05 01:08:57;;;;;;;16.67;5.38;;;;;;;;;;4966320;28;20027;-75
2022/04/05 01:11:23;;;;;;;21.00;7.00;;;;;;;;;;4968033;28;20030;-75
2022/04/05 01:13:51;;;;;;;15.73;7.55;;;;;;;;;;4962519;28;20062;-74
2022/04/05 01:16:21;;;;;;;19.25;5.22;;;;;;;;;;4967259;28;20093;-76
2022/04/05 01:18:49;;;;;;;19.67;4.57;;;;;;;;;;4969245;28;20015;-75
2022/04/05 01:21:17;;;;;;;18.83;5.03;;;;;;;;;;4972357;28;20088;-75
2022/04/05 01:24:06;;;;;;;13.35;4.68;;;;;;;;;;4972279;28;20027;-77
2022/04/05 01:26:39;;;;;;;19.60;6.03;;;;;;;;;;4985651;28;20031;-75
2022/04/05 01:29:06;;;;;;;13.23;4.93;;;;;;;;;;4968812;28;20050;-74
2022/04/05 01:31:39;;;;;;;16.02;5.15;;;;;;;;;;4970597;28;20022;-74
2022/04/05 01:34:07;;;;;;;12.68;4.80;;;;;;;;;;4984512;28;20023;-74
2022/04/05 01:36:34;;;;;;;16.42;4.55;;;;;;;;;;4981077;28;20039;-73
2022/04/05 01:39:00;;;;;;;18.98;6.43;;;;;;;;;;4970690;28;20046;-74
2022/04/05 01:41:30;;;;;;;17.00;5.72;;;;;;;;;;4969517;28;20030;-74
2022/04/05 01:43:56;;;;;;;11.93;5.78;;;;;;;;;;4986446;28;20038;-74
2022/04/05 01:46:23;;;;;;;17.55;5.38;;;;;;;;;;4964494;28;20031;-74
2022/04/05 01:48:51;;;;;;;17.00;5.07;;;;;;;;;;4978819;28;20511;-74
2022/04/05 01:51:18;;;;;;;11.02;4.20;;;;;;;;;;4984680;28;20510;-74
2022/04/05 01:53:44;;;;;;;14.68;4.78;;;;;;;;;;4984469;28;20027;-75
2022/04/05 01:56:11;;;;;;;9.75;3.88;;;;;;;;;;4969049;28;20026;-74
2022/04/05 01:58:37;;;;;;;9.45;4.03;;;;;;;;;;4969538;28;20026;-74
2022/04/05 02:01:04;;;;;;;16.52;5.68;;;;;;;;;;4969989;28;20027;-76
2022/04/05 02:03:31;;;;;;;15.38;5.18;;;;;;;;;;4968089;28;20031;-75
2022/04/05 02:05:58;;;;;;;19.17;5.82;;;;;;;;;;4968514;28;20113;-76
2022/04/05 02:08:24;;;;;;;13.05;5.10;;;;;;;;;;4967418;28;20031;-75
2022/04/05 02:10:51;;;;;;;18.05;4.72;;;;;;;;;;4963110;28;20027;-75
2022/04/05 02:13:18;;;;;;;14.02;4.57;;;;;;;;;;4969054;28;20556;-75
2022/04/05 02:15:44;;;;;;;13.45;3.85;;;;;;;;;;4968297;28;20468;-75
2022/04/05 02:18:11;;;;;;;14.40;4.80;;;;;;;;;;4967963;28;20649;-74
2022/04/05 02:20:38;;;;;;;15.00;4.75;;;;;;;;;;4968176;28;20065;-74
2022/04/05 02:23:04;;;;;;;21.35;6.28;;;;;;;;;;4968783;28;20114;-74
2022/04/05 02:25:31;;;;;;;16.02;5.05;;;;;;;;;;4969063;28;20101;-73
2022/04/05 02:27:57;;;;;;;17.63;4.78;;;;;;;;;;4965273;28;20023;-73
2022/04/05 02:30:24;;;;;;;9.80;3.70;;;;;;;;;;4967146;28;20054;-74
2022/04/05 02:32:50;;;;;;;10.93;4.40;;;;;;;;;;4968095;28;20026;-75
2022/04/05 02:35:18;;;;;;;10.35;3.90;;;;;;;;;;4959997;28;20406;-74
2022/04/05 02:37:45;;;;;;;14.95;3.65;;;;;;;;;;4981414;28;20112;-74
2022/04/05 02:40:12;;;;;;;8.70;3.30;;;;;;;;;;4967134;28;20082;-73
2022/04/05 02:42:39;;;;;;;9.98;3.80;;;;;;;;;;4970350;28;20049;-74
2022/04/05 02:45:05;;;;;;;14.10;4.20;;;;;;;;;;4969967;28;20027;-74
2022/04/05 02:47:32;;;;;;;9.32;4.22;;;;;;;;;;4966348;28;20039;-74
2022/04/05 02:49:59;;;;;;;9.68;3.63;;;;;;;;;;4964988;28;20027;-74
2022/04/05 02:52:25;;;;;;;16.27;4.25;;;;;;;;;;4967412;28;20022;-74
2022/04/05 02:54:52;;;;;;;17.83;4.75;;;;;;;;;;4970494;28;20023;-74
2022/04/05 02:57:18;;;;;;;16.65;4.63;;;;;;;;;;4964851;28;20210;-75
2022/04/05 02:59:45;;;;;;;14.00;3.95;;;;;;;;;;4973066;28;20121;-74
2022/04/05 03:02:14;;;;;;;8.57;3.58;;;;;;;;;;4973958;28;20038;-74
2022/04/05 03:04:41;;;;;;;12.95;3.65;;;;;;;;;;4971966;28;20038;-74
2022/04/05 03:07:08;;;;;;;10.65;3.95;;;;;;;;;;4974092;28;20030;-74
2022/04/05 03:09:35;;;;;;;8.32;3.03;;;;;;;;;;4971969;28;20023;-73
2022/04/05 03:12:01;;;;;;;8.30;3.20;;;;;;;;;;4973534;28;20522;-73
2022/04/05 03:14:27;;;;;;;11.88;3.95;;;;;;;;;;4964430;28;20046;-74
2022/04/05 03:16:54;;;;;;;6.85;3.10;;;;;;;;;;4971548;28;20034;-75
2022/04/05 03:19:20;;;;;;;12.43;3.42;;;;;;;;;;4987291;28;20057;-74
2022/04/05 03:21:47;;;;;;;12.18;4.57;;;;;;;;;;4965804;28;20038;-75
2022/04/05 03:24:13;;;;;;;17.33;4.15;;;;;;;;;;4986927;28;20425;-74
2022/04/05 03:26:40;;;;;;;10.82;3.20;;;;;;;;;;4969649;28;20031;-75
2022/04/05 03:29:06;;;;;;;11.25;4.15;;;;;;;;;;4973777;28;20627;-76
2022/04/05 03:31:32;;;;;;;13.25;4.25;;;;;;;;;;4975927;28;20481;-77
2022/04/05 03:34:00;;;;;;;14.15;5.32;;;;;;;;;;4974872;28;20473;-77
2022/04/05 03:36:26;;;;;;;12.07;3.42;;;;;;;;;;4973066;28;20042;-76
2022/04/05 03:38:53;;;;;;;14.32;4.10;;;;;;;;;;4970523;28;20030;-74
2022/04/05 03:41:21;;;;;;;15.20;3.95;;;;;;;;;;4986874;28;20038;-76
2022/04/05 03:43:47;;;;;;;10.40;3.45;;;;;;;;;;4971948;28;20090;-74
2022/04/05 03:46:14;;;;;;;12.13;4.60;;;;;;;;;;4971056;28;20038;-74
2022/04/05 03:48:48;;;;;;;8.32;3.10;;;;;;;;;;4984355;28;20057;-74
2022/04/05 03:51:15;;;;;;;11.88;3.97;;;;;;;;;;4981620;28;20324;-74
2022/04/05 03:53:42;;;;;;;10.85;3.85;;;;;;;;;;4966557;28;20027;-74
2022/04/05 03:56:10;;;;;;;18.70;4.22;;;;;;;;;;4983556;28;20584;-72
2022/04/05 03:58:40;;;;;;;13.07;3.80;;;;;;;;;;4967890;28;20029;-75
2022/04/05 04:01:07;;;;;;;9.38;4.30;;;;;;;;;;4985231;28;20031;-74
2022/04/05 04:03:48;;;;;;;16.33;4.28;;;;;;;;;;4986282;28;20484;-74
2022/04/05 04:34:38;;;;;;;16.48;5.07;;;;;;;;;;5335293;23;20048;-75
2022/04/05 04:37:05;;;;;;;18.08;5.40;;;;;;;;;;5067135;28;20590;-74
2022/04/05 04:39:31;;;;;;;11.52;4.38;;;;;;;;;;5089699;28;20032;-74
2022/04/05 04:41:58;;;;;;;6.82;3.20;;;;;;;;;;5082475;28;20032;-74
2022/04/05 04:44:24;;;;;;;6.35;3.10;;;;;;;;;;5088555;28;20032;-74
2022/04/05 04:46:51;;;;;;;14.85;4.40;;;;;;;;;;5089080;28;20028;-74
2022/04/05 04:49:17;;;;;;;11.13;4.45;;;;;;;;;;5090299;28;20099;-75
2022/04/05 04:51:43;;;;;;;10.90;3.60;;;;;;;;;;5067273;28;20700;-74
2022/04/05 04:54:09;;;;;;;12.00;3.47;;;;;;;;;;5088981;28;20027;-74
2022/04/05 04:56:35;;;;;;;21.10;5.13;;;;;;;;;;5088868;28;20581;-73
2022/04/05 04:59:01;;;;;;;9.80;3.35;;;;;;;;;;5079733;28;20062;-73
2022/04/05 05:01:27;;;;;;;8.07;3.20;;;;;;;;;;5088422;28;20397;-73
2022/04/05 05:03:53;;;;;;;10.85;3.63;;;;;;;;;;5081269;28;20018;-74
2022/04/05 05:06:19;;;;;;;11.55;3.20;;;;;;;;;;5088722;28;20086;-75
2022/04/05 05:08:45;;;;;;;6.75;3.10;;;;;;;;;;5088895;28;20439;-73
2022/04/05 05:11:12;;;;;;;10.95;3.33;;;;;;;;;;5085286;28;20024;-74
2022/04/05 05:13:38;;;;;;;12.82;4.03;;;;;;;;;;5081928;28;20522;-74
2022/04/05 05:16:04;;;;;;;14.18;3.10;;;;;;;;;;5088096;28;20366;-74
2022/04/05 05:18:30;;;;;;;10.88;3.17;;;;;;;;;;5085776;28;20459;-74
2022/04/05 05:20:56;;;;;;;5.80;2.70;;;;;;;;;;5085700;28;20477;-74
2022/04/05 05:23:23;;;;;;;10.40;3.60;;;;;;;;;;5087055;28;20037;-75
2022/04/05 05:25:49;;;;;;;7.28;2.70;;;;;;;;;;5089883;28;20497;-73
2022/04/05 05:28:15;;;;;;;5.57;2.50;;;;;;;;;;5089528;28;20116;-73
2022/04/05 05:30:41;;;;;;;7.00;2.88;;;;;;;;;;5086473;28;20020;-74
2022/04/05 05:33:08;;;;;;;6.22;2.67;;;;;;;;;;5088438;28;20059;-74
2022/04/05 05:35:34;;;;;;;7.50;2.97;;;;;;;;;;5086431;28;20044;-74
2022/04/05 05:38:00;;;;;;;9.73;3.97;;;;;;;;;;5091002;28;20111;-74
2022/04/05 05:40:26;;;;;;;9.50;3.03;;;;;;;;;;5089249;28;20020;-73
2022/04/05 05:42:59;;;;;;;5.75;3.10;;;;;;;;;;5088393;28;20035;-73
2022/04/05 05:45:26;;;;;;;7.82;2.55;;;;;;;;;;5083309;28;20029;-74
2022/04/05 05:47:53;;;;;;;4.85;2.50;;;;;;;;;;5084999;28;20039;-74
2022/04/05 05:50:19;;;;;;;11.02;3.10;;;;;;;;;;5095196;28;20016;-76
2022/04/05 05:52:46;;;;;;;9.48;2.88;;;;;;;;;;5088562;28;20370;-74
2022/04/05 05:55:13;;;;;;;8.02;3.03;;;;;;;;;;5087808;28;20020;-73
2022/04/05 05:57:40;;;;;;;6.75;2.70;;;;;;;;;;5085229;28;20039;-73
2022/04/05 06:00:08;;;;;;;7.50;3.05;;;;;;;;;;5082622;28;20077;-74
2022/04/05 06:02:40;;;;;;;5.40;2.83;;;;;;;;;;5087112;28;20051;-73
2022/04/05 06:05:07;;;;;;;9.45;2.95;;;;;;;;;;5084936;28;20515;-74
2022/04/05 06:07:34;;;;;;;14.52;4.30;;;;;;;;;;5084934;28;20040;-73
2022/04/05 06:10:00;;;;;;;9.18;2.72;;;;;;;;;;5085703;28;20679;-74
2022/04/05 06:12:26;;;;;;;8.70;3.08;;;;;;;;;;5080205;28;20090;-73
2022/04/05 06:14:52;;;;;;;7.90;2.72;;;;;;;;;;5086667;28;20393;-74
2022/04/05 06:17:19;;;;;;;14.52;3.13;;;;;;;;;;5067600;28;20081;-73
2022/04/05 06:19:45;;;;;;;5.70;2.10;;;;;;;;;;5087567;28;20034;-72
2022/04/05 06:22:12;;;;;;;11.18;4.05;;;;;;;;;;5085724;28;20086;-73
2022/04/05 06:24:38;;;;;;;8.02;2.70;;;;;;;;;;5088393;28;20039;-73
2022/04/05 06:27:05;;;;;;;9.10;2.80;;;;;;;;;;5082832;28;20536;-74
2022/04/05 06:29:31;;;;;;;11.05;2.95;;;;;;;;;;5084762;28;20020;-73
2022/04/05 06:31:58;;;;;;;11.05;3.17;;;;;;;;;;5081432;28;20032;-73
2022/04/05 06:34:27;;;;;;;5.78;2.45;;;;;;;;;;5086488;28;20051;-73
2022/04/05 06:36:55;;;;;;;6.00;3.05;;;;;;;;;;5085574;28;20097;-73
2022/04/05 06:39:22;;;;;;;8.00;2.50;;;;;;;;;;5086951;28;20028;-73
2022/04/05 06:41:48;;;;;;;10.73;2.90;;;;;;;;;;5084943;28;20032;-74
2022/04/05 06:44:14;;;;;;;11.95;3.65;;;;;;;;;;5084610;28;20361;-74
2022/04/05 06:46:40;;;;;;;12.45;2.90;;;;;;;;;;5088472;28;20032;-73
2022/04/05 06:49:06;;;;;;;10.00;2.30;;;;;;;;;;5084670;28;20106;-74
2022/04/05 06:51:32;;;;;;;9.10;3.05;;;;;;;;;;5085638;28;20016;-74
2022/04/05 06:53:58;;;;;;;6.35;2.85;;;;;;;;;;5084973;28;20157;-73
2022/04/05 06:56:26;;;;;;;9.07;2.72;;;;;;;;;;5082429;28;20054;-73
2022/04/05 06:58:53;;;;;;;5.40;2.63;;;;;;;;;;5066530;28;20032;-73
2022/04/05 07:01:19;;;;;;;6.80;2.67;;;;;;;;;;5082103;28;20028;-74
2022/04/05 07:03:45;;;;;;;4.18;2.67;;;;;;;;;;5087122;28;20690;-73
2022/04/05 07:06:11;;;;;;;7.78;3.13;;;;;;;;;;5086397;28;20036;-73
2022/04/05 07:08:37;;;;;;;4.13;2.75;;;;;;;;;;5078938;28;20040;-73
2022/04/05 07:11:04;;;;;;;8.80;2.33;;;;;;;;;;5081151;28;20436;-74
2022/04/05 07:13:30;;;;;;;5.85;2.80;;;;;;;;;;5062969;28;20370;-73
2022/04/05 07:15:57;;;;;;;9.40;2.50;;;;;;;;;;5079020;28;20034;-74
2022/04/05 07:18:23;;;;;;;5.70;2.05;;;;;;;;;;5076700;28;20025;-74
2022/04/05 07:20:49;;;;;;;7.55;2.70;;;;;;;;;;5076285;28;20032;-74
2022/04/05 07:23:16;;;;;;;10.38;4.50;;;;;;;;;;5080301;28;20504;-74
2022/04/05 07:25:42;;;;;;;5.53;2.85;;;;;;;;;;5085900;28;20028;-73
2022/04/05 07:28:08;;;;;;;7.63;2.95;;;;;;;;;;5082674;28;20556;-73
2022/04/05 07:30:34;;;;;;;5.43;2.40;;;;;;;;;;5084576;28;20035;-74
2022/04/05 07:33:01;;;;;;;3.92;1.98;;;;;;;;;;5072172;28;20039;-75
2022/04/05 07:35:27;;;;;;;4.55;2.00;;;;;;;;;;5075325;28;20098;-72
2022/04/05 07:37:54;;;;;;;7.38;2.40;;;;;;;;;;5058995;28;20081;-75
2022/04/05 07:40:20;;;;;;;6.18;2.20;;;;;;;;;;5079417;28;20039;-72
2022/04/05 07:42:46;;;;;;;4.18;2.33;;;;;;;;;;5081861;28;20031;-74
2022/04/05 07:45:13;;;;;;;5.55;2.20;;;;;;;;;;5066094;28;21451;-76
2022/04/05 07:47:39;;;;;;;2.60;2.38;;;;;;;;;;5079568;28;20063;-75
2022/04/05 07:50:06;;;;;;;6.47;2.17;;;;;;;;;;5080761;28;20316;-76
2022/04/05 07:52:32;;;;;;;4.70;2.30;;;;;;;;;;5083629;28;20906;-76
2022/04/05 07:54:59;;;;;;;3.20;1.85;;;;;;;;;;5082303;28;20029;-76
2022/04/05 07:57:25;;;;;;;3.25;2.05;;;;;;;;;;5084813;28;20131;-75
2022/04/05 07:59:51;;;;;;;4.63;1.95;;;;;;;;;;5082159;28;20673;-75
2022/04/05 08:02:18;;;;;;;2.15;1.88;;;;;;;;;;5062737;28;20242;-75
2022/04/05 08:04:44;;;;;;;9.60;3.15;;;;;;;;;;5085210;28;20020;-74
2022/04/05 08:07:11;;;;;;;2.60;2.20;;;;;;;;;;5086651;28;20028;-75
2022/04/05 08:09:37;;;;;;;4.05;2.10;;;;;;;;;;5067393;28;20034;-74
2022/04/05 08:12:03;;;;;;;3.38;2.00;;;;;;;;;;5066243;28;20024;-74
2022/04/05 08:14:31;;;;;;;5.68;2.50;;;;;;;;;;5083834;28;20034;-76
2022/04/05 08:16:58;;;;;;;6.63;2.40;;;;;;;;;;5086965;28;20028;-75
2022/04/05 08:19:24;;;;;;;7.95;2.95;;;;;;;;;;5089823;28;20043;-76
2022/04/05 08:21:51;;;;;;;5.03;2.08;;;;;;;;;;5089217;28;20039;-76
2022/04/05 08:24:20;;;;;;;4.47;2.03;;;;;;;;;;5078165;28;20033;-76
2022/04/05 08:26:47;;;;;;;5.68;2.28;;;;;;;;;;5083603;28;20031;-75
2022/04/05 08:29:13;;;;;;;7.13;2.17;;;;;;;;;;5086504;28;20105;-75
2022/04/05 08:31:39;;;;;;;3.83;2.00;;;;;;;;;;5083986;28;20032;-75
2022/04/05 08:34:05;;;;;;;6.75;2.13;;;;;;;;;;5083454;28;20525;-76
2022/04/05 08:36:32;;;;;;;7.22;2.78;;;;;;;;;;5065594;28;20042;-76
2022/04/05 08:38:58;;;;;;;4.80;2.42;;;;;;;;;;5085536;28;20024;-75
2022/04/05 08:41:25;;;;;;;4.93;2.10;;;;;;;;;;5087375;28;20032;-77
2022/04/05 08:43:51;;;;;;;3.97;2.00;;;;;;;;;;5088140;28;20635;-76
2022/04/05 08:46:18;;;;;;;8.23;2.17;;;;;;;;;;5081693;28;20032;-74
2022/04/05 08:48:46;;;;;;;3.45;1.95;;;;;;;;;;5080085;28;20358;-75
2022/04/05 08:51:12;;;;;;;5.43;2.08;;;;;;;;;;5085878;28;20020;-74
2022/04/05 08:53:39;;;;;;;4.10;1.90;;;;;;;;;;5061235;28;20032;-75
2022/04/05 08:56:05;;;;;;;5.97;3.28;;;;;;;;;;5079880;28;20614;-75
2022/04/05 08:58:31;;;;;;;4.10;2.58;;;;;;;;;;5087440;28;20024;-76
2022/04/05 09:00:58;;;;;;;3.67;2.30;;;;;;;;;;5080467;28;20082;-76
2022/04/05 09:03:24;;;;;;;6.53;2.65;;;;;;;;;;5069917;28;20232;-75
2022/04/05 09:05:50;;;;;;;5.15;2.10;;;;;;;;;;5083245;28;20024;-75
2022/04/05 09:08:17;;;;;;;4.93;2.22;;;;;;;;;;5085489;28;20020;-76
2022/04/05 09:10:44;;;;;;;2.33;2.13;;;;;;;;;;5081113;28;20031;-76
2022/04/05 09:13:11;;;;;;;3.35;2.75;;;;;;;;;;5085513;28;20106;-70
2022/04/05 09:15:37;;;;;;;8.38;2.30;;;;;;;;;;5083444;28;20028;-75
2022/04/05 09:18:05;;;;;;;5.88;2.03;;;;;;;;;;5084468;28;20032;-76
2022/04/05 09:20:32;;;;;;;5.40;2.30;;;;;;;;;;5080780;28;20527;-74
2022/04/05 09:23:01;;;;;;;4.90;2.72;;;;;;;;;;5083670;28;20156;-76
2022/04/05 09:25:27;;;;;;;4.80;2.15;;;;;;;;;;5063095;28;20031;-75
2022/04/05 09:27:58;;;;;;;8.10;2.25;;;;;;;;;;5081470;28;20034;-74
2022/04/05 09:30:28;;;;;;;6.75;2.20;;;;;;;;;;5082438;28;20028;-76
2022/04/05 09:32:55;;;;;;;5.93;2.33;;;;;;;;;;5082879;28;20051;-76
2022/04/05 09:35:23;;;;;;;6.13;2.92;;;;;;;;;;5083711;28;20044;-71
2022/04/05 09:37:49;;;;;;;6.20;2.42;;;;;;;;;;5082004;28;20032;-75
2022/04/05 09:40:32;;;;;;;4.65;2.65;;;;;;;;;;5080432;28;20028;-75
2022/04/05 09:43:08;;;;;;;6.55;3.05;;;;;;;;;;5082112;28;20032;-76
2022/04/05 09:45:43;;;;;;;7.00;3.35;;;;;;;;;;5059432;28;20035;-76
2022/04/05 09:48:09;;;;;;;4.72;2.42;;;;;;;;;;5080201;28;20047;-75
2022/04/05 09:50:54;;;;;;;7.40;4.10;;;;;;;;;;5084673;28;20024;-74
2022/04/05 09:53:20;;;;;;;4.63;2.65;;;;;;;;;;5084522;28;20018;-76
2022/04/05 09:55:46;;;;;;;5.82;2.92;;;;;;;;;;5082579;28;20385;-77
2022/04/05 09:58:13;;;;;;;6.22;2.28;;;;;;;;;;5080806;28;20051;-76
2022/04/05 10:00:39;;;;;;;5.20;2.47;;;;;;;;;;5083866;28;20028;-75
2022/04/05 10:03:05;;;;;;;5.05;2.08;;;;;;;;;;5084939;28;20727;-75
2022/04/05 10:05:32;;;;;;;3.58;2.17;;;;;;;;;;5080766;28;20129;-76
2022/04/05 10:07:58;;;;;;;5.35;2.00;;;;;;;;;;5076859;28;20032;-76
2022/04/05 10:10:25;;;;;;;2.72;1.80;;;;;;;;;;5056715;28;20028;-74
2022/04/05 10:12:52;;;;;;;6.68;2.10;;;;;;;;;;5076041;28;20085;-75
2022/04/05 10:15:21;;;;;;;4.57;2.10;;;;;;;;;;5082410;28;20035;-76
2022/04/05 10:17:47;;;;;;;4.88;2.20;;;;;;;;;;5063460;28;20047;-76
2022/04/05 10:20:14;;;;;;;2.72;2.17;;;;;;;;;;5077310;28;20070;-74
2022/04/05 10:22:43;;;;;;;4.00;2.80;;;;;;;;;;5080914;28;20114;-76
2022/04/05 10:25:09;;;;;;;2.75;1.95;;;;;;;;;;5082070;28;20028;-76
2022/04/05 10:27:36;;;;;;;3.10;1.88;;;;;;;;;;5083404;28;20104;-76
2022/04/05 10:30:16;;;;;;;4.85;2.60;;;;;;;;;;5078994;28;20105;-76
2022/04/05 10:32:47;;;;;;;2.97;1.95;;;;;;;;;;5082922;28;20031;-73
2022/04/05 10:35:15;;;;;;;5.53;2.00;;;;;;;;;;5081451;28;20039;-76
2022/04/05 10:37:41;;;;;;;6.07;2.20;;;;;;;;;;5083989;28;20754;-76
2022/04/05 10:40:10;;;;;;;6.25;2.50;;;;;;;;;;5085754;28;20103;-76
2022/04/05 10:42:36;;;;;;;5.45;2.00;;;;;;;;;;5082868;28;20028;-76
2022/04/05 10:45:08;;;;;;;3.58;2.20;;;;;;;;;;5085321;28;20059;-76
2022/04/05 10:47:54;;;;;;;3.00;2.03;;;;;;;;;;5080047;28;20401;-77
2022/04/05 10:50:20;;;;;;;6.43;2.08;;;;;;;;;;5080888;28;20381;-76
2022/04/05 10:53:06;;;;;;;2.13;1.80;;;;;;;;;;5062059;28;20393;-75
2022/04/05 10:55:32;;;;;;;4.18;2.10;;;;;;;;;;5080841;28;20055;-74
2022/04/05 10:58:08;;;;;;;3.83;2.15;;;;;;;;;;5081463;28;20032;-75
2022/04/05 11:00:35;;;;;;;6.72;2.10;;;;;;;;;;5064057;28;20457;-76
2022/04/05 11:03:01;;;;;;;5.72;2.58;;;;;;;;;;5081407;28;20032;-76
2022/04/05 11:05:35;;;;;;;4.10;2.10;;;;;;;;;;5080348;28;20024;-76
2022/04/05 11:08:01;;;;;;;4.85;2.20;;;;;;;;;;5076885;28;20047;-74
2022/04/05 11:10:36;;;;;;;5.22;2.63;;;;;;;;;;5082985;28;20035;-76
2022/04/05 11:13:06;;;;;;;5.80;3.28;;;;;;;;;;5075860;28;20040;-75
2022/04/05 11:15:40;;;;;;;5.25;2.10;;;;;;;;;;5079703;28;20028;-75
2022/04/05 11:18:06;;;;;;;3.95;2.22;;;;;;;;;;5082334;28;20026;-75
2022/04/05 11:20:32;;;;;;;5.22;2.10;;;;;;;;;;5085809;28;20111;-75
2022/04/05 11:23:02;;;;;;;3.72;2.00;;;;;;;;;;5086471;28;20032;-75
2022/04/05 11:25:29;;;;;;;4.72;2.33;;;;;;;;;;5079254;28;20036;-75
2022/04/05 11:27:56;;;;;;;5.35;2.70;;;;;;;;;;5084902;28;20132;-75
2022/04/05 11:30:22;;;;;;;6.00;2.08;;;;;;;;;;5085334;28;20020;-76
2022/04/05 11:33:10;;;;;;;5.75;2.33;;;;;;;;;;5083842;28;20509;-74
2022/04/05 11:35:36;;;;;;;2.55;2.03;;;;;;;;;;5067802;28;20044;-74
2022/04/05 11:38:03;;;;;;;7.88;2.88;;;;;;;;;;5080505;28;20054;-75
2022/04/05 11:40:32;;;;;;;5.45;2.97;;;;;;;;;;5068324;28;20032;-74
2022/04/05 11:43:02;;;;;;;5.32;3.33;;;;;;;;;;5084524;28;20036;-74
2022/04/05 11:45:29;;;;;;;9.77;3.72;;;;;;;;;;5065580;28;20032;-76
2022/04/05 11:47:56;;;;;;;4.43;2.10;;;;;;;;;;5085976;28;20020;-73
2022/04/05 11:50:22;;;;;;;5.88;2.67;;;;;;;;;;5085022;28;20032;-74
2022/04/05 11:52:49;;;;;;;7.28;2.55;;;;;;;;;;5084649;28;20526;-74
2022/04/05 11:58:10;;;;;;;6.18;2.03;;;;;;;;;;5078647;28;20043;-75
2022/04/05 12:00:52;;;;;;;5.00;2.58;;;;;;;;;;5056586;28;20108;-75
2022/04/05 12:03:18;;;;;;;6.03;2.08;;;;;;;;;;5078133;28;20508;-76
2022/04/05 12:05:44;;;;;;;8.25;2.85;;;;;;;;;;5077181;28;20508;-75
2022/04/05 12:08:14;;;;;;;3.25;2.50;;;;;;;;;;5063518;28;20381;-77
2022/04/05 12:10:41;;;;;;;4.53;2.17;;;;;;;;;;5082583;28;20028;-77
2022/04/05 12:13:08;;;;;;;3.88;2.45;;;;;;;;;;5084152;28;20027;-77
2022/04/05 12:15:35;;;;;;;4.70;2.33;;;;;;;;;;5081142;28;20024;-78
2022/04/05 12:18:17;;;;;;;5.03;2.22;;;;;;;;;;5084366;28;20055;-74
2022/04/05 12:21:00;;;;;;;3.03;2.28;;;;;;;;;;5083801;28;20044;-76
2022/04/05 12:23:30;;;;;;;3.78;2.15;;;;;;;;;;5082563;28;20116;-75
2022/04/05 12:26:29;;;;;;;5.18;2.10;;;;;;;;;;5084074;28;20128;-75
2022/04/05 12:28:57;;;;;;;6.45;2.78;;;;;;;;;;5023362;28;20885;-75
2022/04/05 12:31:28;;;;;;;5.10;2.10;;;;;;;;;;5082285;28;20093;-75
2022/04/05 12:33:54;;;;;;;3.72;2.00;;;;;;;;;;5081775;28;20047;-77
2022/04/05 12:36:21;;;;;;;5.60;3.05;;;;;;;;;;5084097;28;20060;-77
2022/04/05 12:38:48;;;;;;;3.22;2.03;;;;;;;;;;5066226;28;20397;-77
2022/04/05 12:41:14;;;;;;;3.38;2.30;;;;;;;;;;5086296;28;20073;-76
2022/04/05 12:43:40;;;;;;;5.22;2.30;;;;;;;;;;5082911;28;20039;-77
2022/04/05 12:46:11;;;;;;;2.80;2.22;;;;;;;;;;5065409;28;20039;-77
2022/04/05 12:48:37;;;;;;;4.50;2.35;;;;;;;;;;5084029;28;20024;-77
2022/04/05 12:51:04;;;;;;;4.40;1.80;;;;;;;;;;5065304;28;20020;-75
2022/04/05 12:53:35;;;;;;;3.88;1.75;;;;;;;;;;5082760;28;20032;-78
2022/04/05 12:56:03;;;;;;;4.43;2.10;;;;;;;;;;5087487;28;20028;-77
2022/04/05 12:58:35;;;;;;;4.28;2.30;;;;;;;;;;5082117;28;20035;-76
2022/04/05 13:01:02;;;;;;;2.95;1.70;;;;;;;;;;5061057;28;20116;-76
2022/04/05 13:03:34;;;;;;;4.90;1.60;;;;;;;;;;5080891;28;20551;-76
2022/04/05 13:06:20;;;;;;;4.22;2.10;;;;;;;;;;5082145;28;20038;-73
2022/04/05 13:08:46;;;;;;;2.25;1.83;;;;;;;;;;5068655;28;20056;-77
2022/04/05 13:11:26;;;;;;;3.47;1.70;;;;;;;;;;5089726;28;20496;-75
2022/04/05 13:14:15;;;;;;;3.78;1.88;;;;;;;;;;5082949;28;20111;-74
2022/04/05 13:16:43;;;;;;;3.67;1.70;;;;;;;;;;5083764;28;20048;-74
2022/04/05 13:19:13;;;;;;;4.15;2.22;;;;;;;;;;5084968;28;20038;-74
2022/04/05 13:21:42;;;;;;;3.50;1.60;;;;;;;;;;5078831;28;20516;-75
2022/04/05 13:24:09;;;;;;;2.17;1.90;;;;;;;;;;5081736;28;20389;-73
2022/04/05 13:26:38;;;;;;;3.95;2.35;;;;;;;;;;5081163;28;20042;-74
2022/04/05 13:29:15;;;;;;;2.78;1.60;;;;;;;;;;5080051;28;20042;-75
2022/04/05 13:31:41;;;;;;;5.32;1.90;;;;;;;;;;5083795;28;20086;-75
2022/04/05 13:34:09;;;;;;;2.60;1.90;;;;;;;;;;5082978;28;20036;-75
2022/04/05 13:36:35;;;;;;;3.78;1.90;;;;;;;;;;5082574;28;20031;-75
2022/04/05 13:39:02;;;;;;;5.15;2.00;;;;;;;;;;5080770;28;20039;-75
2022/04/05 13:41:28;;;;;;;4.40;1.88;;;;;;;;;;5083578;28;20505;-75
2022/04/05 13:43:56;;;;;;;4.50;1.65;;;;;;;;;;5084076;28;20036;-75
2022/04/05 13:46:22;;;;;;;2.35;1.60;;;;;;;;;;5081465;28;20020;-76
2022/04/05 13:48:48;;;;;;;4.40;1.90;;;;;;;;;;5082200;28;20024;-74
2022/04/05 13:51:15;;;;;;;4.03;1.70;;;;;;;;;;5081749;28;20127;-76
2022/04/05 13:53:42;;;;;;;2.97;1.60;;;;;;;;;;5082765;28;20060;-75
2022/04/05 13:56:09;;;;;;;9.35;5.35;;;;;;;;;;5066903;28;20140;-75
2022/04/05 13:58:35;;;;;;;10.50;5.30;;;;;;;;;;5080951;28;20500;-76
2022/04/05 14:01:01;;;;;;;4.28;2.30;;;;;;;;;;5083099;28;20042;-76
2022/04/05 14:03:28;;;;;;;4.22;3.33;;;;;;;;;;5081575;28;20120;-75
2022/04/05 14:05:54;;;;;;;4.57;1.85;;;;;;;;;;5079887;28;20078;-75
2022/04/05 14:08:20;;;;;;;3.95;1.98;;;;;;;;;;5080973;28;20024;-76
2022/04/05 14:10:46;;;;;;;4.05;1.80;;;;;;;;;;5079838;28;20051;-74
2022/04/05 14:13:12;;;;;;;2.85;1.80;;;;;;;;;;5078417;28;20032;-75
2022/04/05 14:15:38;;;;;;;3.35;1.70;;;;;;;;;;5081937;28;20032;-74
2022/04/05 14:18:04;;;;;;;5.63;2.30;;;;;;;;;;5082380;28;20034;-75
2022/04/05 14:20:31;;;;;;;3.58;1.95;;;;;;;;;;5082794;28;20514;-76
2022/04/05 14:22:57;;;;;;;5.88;2.00;;;;;;;;;;5081555;28;20047;-76
2022/04/05 14:25:23;;;;;;;3.45;1.95;;;;;;;;;;5064592;28;20036;-75
2022/04/05 14:27:49;;;;;;;3.80;2.17;;;;;;;;;;5082058;28;20028;-74
2022/04/05 14:30:15;;;;;;;3.60;2.33;;;;;;;;;;5079438;28;20056;-76
2022/04/05 14:32:41;;;;;;;7.88;2.90;;;;;;;;;;5079907;28;20056;-75
2022/04/05 14:35:08;;;;;;;3.53;2.10;;;;;;;;;;5080915;28;20090;-75
2022/04/05 14:37:34;;;;;;;5.45;2.70;;;;;;;;;;5080431;28;20673;-75
2022/04/05 14:40:00;;;;;;;5.45;2.50;;;;;;;;;;5062520;28;20028;-75
2022/04/05 14:42:26;;;;;;;3.20;2.00;;;;;;;;;;5079163;28;20382;-75
2022/04/05 14:44:52;;;;;;;3.58;2.03;;;;;;;;;;5081031;28;20392;-75
2022/04/05 14:47:19;;;;;;;2.95;2.17;;;;;;;;;;5078009;28;20042;-74
2022/04/05 14:49:45;;;;;;;2.85;2.30;;;;;;;;;;5078903;28;20073;-74
2022/04/05 14:52:11;;;;;;;2.90;2.38;;;;;;;;;;5078911;28;20494;-76
2022/04/05 14:54:37;;;;;;;4.85;2.00;;;;;;;;;;5081051;28;20140;-75
2022/04/05 14:57:03;;;;;;;7.80;2.10;;;;;;;;;;5080015;28;20028;-74
2022/04/05 14:59:30;;;;;;;7.78;2.55;;;;;;;;;;5080815;28;20127;-76
2022/04/05 15:01:56;;;;;;;3.13;2.20;;;;;;;;;;5082644;28;20024;-75
2022/04/05 15:04:22;;;;;;;5.18;2.13;;;;;;;;;;5081917;28;20043;-76
2022/04/05 15:06:48;;;;;;;7.00;3.15;;;;;;;;;;5081967;28;20024;-75
2022/04/05 15:09:19;;;;;;;2.80;1.85;;;;;;;;;;5054827;28;20035;-74
2022/04/05 15:11:45;;;;;;;4.55;2.22;;;;;;;;;;5062112;28;20231;-75